Time;durP1;ratioP1;P1;durP2;ratioP2;P2;SDS_P1;SDS_P2;PMS_P1;PMS_P2;Temp;Humidity;BMP_temperature;BMP_pressure;BME280_temperature;BME280_humidity;BME280_pressure;Samples;Min_cycle;Max_cycle;Signal;HPM_P1;HPM_P2
2023/08/03 00:02:18;;;;;;;1.52;0.60;;;17.50;99.90;;;;;;5059193;28;20506;-44
2023/08/03 00:04:44;;;;;;;0.50;0.50;;;17.50;99.90;;;;;;5065983;28;20017;-42
2023/08/03 00:07:09;;;;;;;1.13;0.60;;;17.40;99.90;;;;;;5056642;28;20028;-42
2023/08/03 00:09:39;;;;;;;1.95;0.70;;;17.40;99.90;;;;;;5065131;28;20063;-42
2023/08/03 00:12:06;;;;;;;1.30;0.70;;;17.40;99.90;;;;;;5056681;28;20043;-42
2023/08/03 00:14:31;;;;;;;0.70;0.70;;;17.40;99.90;;;;;;5066188;28;20090;-41
2023/08/03 00:16:57;;;;;;;1.85;0.55;;;17.40;99.90;;;;;;5055776;28;20024;-41
2023/08/03 00:19:22;;;;;;;1.33;0.75;;;17.40;99.90;;;;;;5047668;28;20090;-41
2023/08/03 00:21:48;;;;;;;1.00;0.65;;;17.40;99.90;;;;;;5060088;28;20032;-42
2023/08/03 00:24:14;;;;;;;1.02;0.63;;;17.40;99.90;;;;;;5047035;28;20029;-41
2023/08/03 00:26:39;;;;;;;1.52;0.73;;;17.50;99.90;;;;;;5058724;28;20032;-41
2023/08/03 00:29:05;;;;;;;1.50;0.80;;;17.50;99.90;;;;;;5049394;28;20056;-41
2023/08/03 00:31:30;;;;;;;0.75;0.60;;;17.50;99.90;;;;;;5055328;28;20032;-42
2023/08/03 00:33:56;;;;;;;0.70;0.55;;;17.50;99.90;;;;;;5051409;28;20045;-43
2023/08/03 00:36:21;;;;;;;0.73;0.40;;;17.50;99.90;;;;;;5053735;28;20082;-42
2023/08/03 00:38:50;;;;;;;0.95;0.50;;;17.50;99.90;;;;;;5053544;28;20024;-41
2023/08/03 00:41:22;;;;;;;1.13;0.57;;;17.60;99.90;;;;;;5050251;28;20028;-41
2023/08/03 00:43:47;;;;;;;1.00;0.60;;;17.60;99.90;;;;;;5055662;28;20028;-41
2023/08/03 00:46:13;;;;;;;1.23;1.00;;;17.60;99.90;;;;;;5048116;28;20036;-41
2023/08/03 00:48:42;;;;;;;0.55;0.52;;;17.60;99.90;;;;;;5057851;28;20404;-42
2023/08/03 00:51:07;;;;;;;1.02;0.68;;;17.60;99.90;;;;;;5049041;28;20025;-42
2023/08/03 00:53:33;;;;;;;1.40;0.80;;;17.70;99.90;;;;;;5056922;28;20039;-41
2023/08/03 00:55:58;;;;;;;1.10;0.75;;;17.70;99.90;;;;;;5047761;28;20083;-43
2023/08/03 00:58:24;;;;;;;1.33;0.60;;;17.70;99.90;;;;;;5058585;28;20017;-42
2023/08/03 01:00:56;;;;;;;2.00;1.10;;;17.70;99.90;;;;;;5047200;28;20037;-42
2023/08/03 01:03:21;;;;;;;1.08;0.85;;;17.70;99.90;;;;;;5059032;28;20024;-41
2023/08/03 01:05:47;;;;;;;1.52;0.70;;;17.70;99.90;;;;;;5045680;28;20474;-41
2023/08/03 01:08:12;;;;;;;1.08;0.82;;;17.70;99.90;;;;;;5059332;28;20530;-42
2023/08/03 01:10:38;;;;;;;1.80;1.10;;;17.70;99.90;;;;;;5047009;28;20037;-41
2023/08/03 01:13:04;;;;;;;1.30;1.17;;;17.70;99.90;;;;;;5055949;28;20356;-41
2023/08/03 01:15:29;;;;;;;2.78;1.23;;;17.70;99.90;;;;;;5056862;28;20027;-42
2023/08/03 01:17:55;;;;;;;1.25;1.02;;;17.70;99.90;;;;;;5058647;28;20031;-41
2023/08/03 01:20:21;;;;;;;1.45;0.90;;;17.70;99.90;;;;;;5060363;28;20028;-42
2023/08/03 01:22:49;;;;;;;2.53;1.20;;;17.70;99.90;;;;;;5061647;28;20796;-42
2023/08/03 01:25:15;;;;;;;1.45;0.93;;;17.70;99.90;;;;;;5059320;28;20063;-41
2023/08/03 01:27:45;;;;;;;1.45;0.70;;;17.60;99.90;;;;;;5063612;28;20040;-42
2023/08/03 01:30:10;;;;;;;1.48;0.60;;;17.70;99.90;;;;;;5056805;28;20154;-42
2023/08/03 01:32:39;;;;;;;1.38;0.70;;;17.60;99.90;;;;;;5064872;28;20128;-42
2023/08/03 01:35:06;;;;;;;0.55;0.52;;;17.60;99.90;;;;;;5054448;28;20016;-42
2023/08/03 01:37:35;;;;;;;0.82;0.50;;;17.50;99.90;;;;;;5065495;28;20027;-42
2023/08/03 01:40:07;;;;;;;1.27;0.60;;;17.50;99.90;;;;;;5054874;28;20027;-43
2023/08/03 01:42:33;;;;;;;2.58;0.60;;;17.60;99.90;;;;;;5064445;28;20017;-42
2023/08/03 01:45:01;;;;;;;1.50;0.80;;;17.60;99.90;;;;;;5053997;28;20023;-42
2023/08/03 01:47:27;;;;;;;0.65;0.55;;;17.60;99.90;;;;;;5064827;28;20048;-42
2023/08/03 01:49:52;;;;;;;2.10;1.05;;;17.60;99.90;;;;;;5052395;28;20432;-42
2023/08/03 01:52:18;;;;;;;2.25;0.80;;;17.70;99.90;;;;;;5065862;28;20392;-42
2023/08/03 01:54:43;;;;;;;0.88;0.80;;;17.70;99.90;;;;;;5052720;28;20086;-42
2023/08/03 01:57:09;;;;;;;1.95;0.88;;;17.70;99.90;;;;;;5066109;28;20026;-42
2023/08/03 01:59:35;;;;;;;5.35;1.40;;;17.70;99.90;;;;;;5056831;28;20047;-42
2023/08/03 02:02:00;;;;;;;1.85;1.00;;;17.80;99.90;;;;;;5062333;28;20024;-42
2023/08/03 02:04:26;;;;;;;3.90;1.52;;;17.80;99.90;;;;;;5059154;28;20433;-42
2023/08/03 02:06:56;;;;;;;2.47;1.08;;;17.90;99.90;;;;;;5060737;28;20020;-41
2023/08/03 02:09:22;;;;;;;1.75;0.93;;;17.90;99.90;;;;;;5059852;28;20045;-42
2023/08/03 02:11:48;;;;;;;3.65;1.10;;;17.90;99.90;;;;;;5058541;28;20025;-42
2023/08/03 02:14:13;;;;;;;2.30;0.95;;;18.00;99.90;;;;;;5063849;28;20422;-42
2023/08/03 02:16:39;;;;;;;3.80;1.35;;;18.00;99.90;;;;;;5060918;28;20025;-42
2023/08/03 02:19:04;;;;;;;2.47;1.02;;;18.00;99.90;;;;;;5064103;28;20036;-41
2023/08/03 02:21:30;;;;;;;3.00;1.02;;;18.10;99.90;;;;;;5054464;28;20055;-42
2023/08/03 02:23:55;;;;;;;2.17;1.30;;;18.10;99.90;;;;;;5064209;28;20025;-42
2023/08/03 02:26:21;;;;;;;2.17;1.10;;;18.10;99.90;;;;;;5054253;28;20488;-42
2023/08/03 02:28:47;;;;;;;3.17;1.10;;;18.10;99.90;;;;;;5065436;28;20031;-42
2023/08/03 02:31:18;;;;;;;3.28;1.13;;;18.10;99.90;;;;;;5051826;28;20032;-42
2023/08/03 02:33:44;;;;;;;3.45;1.45;;;18.10;99.90;;;;;;5065720;28;20038;-42
2023/08/03 02:36:09;;;;;;;3.05;1.40;;;18.20;99.90;;;;;;5052790;28;20017;-42
2023/08/03 02:38:35;;;;;;;2.95;1.42;;;18.20;99.90;;;;;;5065028;28;20491;-42
2023/08/03 02:41:01;;;;;;;3.80;1.42;;;18.20;99.90;;;;;;5055096;28;20043;-42
2023/08/03 02:43:27;;;;;;;6.22;1.70;;;18.20;99.90;;;;;;5062929;28;20464;-42
2023/08/03 02:45:53;;;;;;;4.57;1.80;;;18.20;99.90;;;;;;5056864;28;20586;-42
2023/08/03 02:48:19;;;;;;;3.25;1.77;;;18.20;99.90;;;;;;5060017;28;20016;-42
2023/08/03 02:50:44;;;;;;;3.58;1.38;;;18.20;99.90;;;;;;5059615;28;20025;-42
2023/08/03 02:53:10;;;;;;;4.22;1.60;;;18.20;99.90;;;;;;5055009;28;20554;-42
2023/08/03 02:55:35;;;;;;;5.30;1.75;;;18.20;99.90;;;;;;5062431;28;20486;-43
2023/08/03 02:58:01;;;;;;;3.35;1.50;;;18.20;99.90;;;;;;5054112;28;20020;-42
2023/08/03 03:00:26;;;;;;;2.90;1.30;;;18.20;99.90;;;;;;5063878;28;20033;-42
2023/08/03 03:02:52;;;;;;;4.63;1.67;;;18.10;99.90;;;;;;5053729;28;20020;-42
2023/08/03 03:05:17;;;;;;;1.60;1.00;;;18.10;99.90;;;;;;5068146;28;20032;-42
2023/08/03 03:07:43;;;;;;;3.15;1.38;;;18.10;99.90;;;;;;5057301;28;20021;-42
2023/08/03 03:10:09;;;;;;;3.85;1.40;;;18.00;99.90;;;;;;5069457;28;20032;-42
2023/08/03 03:12:35;;;;;;;2.83;1.40;;;18.00;99.90;;;;;;5055683;28;20037;-42
2023/08/03 03:15:07;;;;;;;2.63;1.20;;;18.00;99.90;;;;;;5067629;28;20037;-42
2023/08/03 03:17:33;;;;;;;3.88;1.50;;;18.00;99.90;;;;;;5061306;28;20028;-42
2023/08/03 03:19:58;;;;;;;2.45;1.40;;;18.00;99.90;;;;;;5048053;28;20025;-42
2023/08/03 03:22:24;;;;;;;3.45;1.40;;;18.00;99.90;;;;;;5059213;28;20513;-42
2023/08/03 03:24:50;;;;;;;3.67;1.55;;;18.00;99.90;;;;;;5051392;28;20254;-41
2023/08/03 03:27:15;;;;;;;2.47;1.30;;;18.00;99.90;;;;;;5055369;28;20797;-42
2023/08/03 03:29:47;;;;;;;2.17;1.00;;;18.00;99.90;;;;;;5054163;28;20033;-42
2023/08/03 03:32:16;;;;;;;0.80;0.50;;;18.00;99.90;;;;;;5054665;28;20037;-42
2023/08/03 03:34:41;;;;;;;0.80;0.80;;;18.00;99.90;;;;;;5054622;28;20040;-42
2023/08/03 03:37:10;;;;;;;1.13;0.80;;;18.00;99.90;;;;;;5052216;28;20033;-42
2023/08/03 03:39:35;;;;;;;0.73;0.68;;;17.90;99.90;;;;;;5056658;28;20024;-42
2023/08/03 03:42:01;;;;;;;1.17;0.70;;;18.00;99.90;;;;;;5048990;28;20028;-42
2023/08/03 03:44:27;;;;;;;0.88;0.88;;;18.00;99.90;;;;;;5059913;28;20045;-43
2023/08/03 03:46:52;;;;;;;0.85;0.82;;;17.90;99.90;;;;;;5049877;28;20024;-42
2023/08/03 03:49:18;;;;;;;1.45;0.90;;;18.00;99.90;;;;;;5059125;28;20017;-42
2023/08/03 03:51:43;;;;;;;1.10;0.70;;;17.90;99.90;;;;;;5048774;28;20036;-42
2023/08/03 03:54:09;;;;;;;0.95;0.70;;;17.90;99.90;;;;;;5060552;28;20381;-42
2023/08/03 03:56:34;;;;;;;0.82;0.75;;;17.90;99.90;;;;;;5047716;28;20021;-42
2023/08/03 03:59:00;;;;;;;0.85;0.65;;;17.90;99.90;;;;;;5060553;28;20040;-42
2023/08/03 04:01:26;;;;;;;1.50;1.00;;;17.90;99.90;;;;;;5047977;28;20021;-42
2023/08/03 04:03:52;;;;;;;1.20;0.90;;;17.90;99.90;;;;;;5058899;28;20097;-42
2023/08/03 04:06:17;;;;;;;1.40;0.82;;;17.80;99.90;;;;;;5050381;28;20491;-42
2023/08/03 04:08:43;;;;;;;2.17;1.15;;;17.80;99.90;;;;;;5055004;28;20044;-42
2023/08/03 04:11:08;;;;;;;0.85;0.80;;;17.70;99.90;;;;;;5052706;28;20035;-42
2023/08/03 04:13:34;;;;;;;2.42;0.95;;;17.70;99.90;;;;;;5053240;28;20024;-42
2023/08/03 04:16:00;;;;;;;1.75;0.85;;;17.80;99.90;;;;;;5063271;28;20028;-42
2023/08/03 04:18:27;;;;;;;1.23;0.90;;;17.80;99.90;;;;;;5065547;28;20356;-42
2023/08/03 04:20:56;;;;;;;1.95;1.10;;;17.80;99.90;;;;;;5058604;28;20033;-42
2023/08/03 04:23:22;;;;;;;2.20;1.17;;;17.80;99.90;;;;;;5066043;28;20037;-42
2023/08/03 04:25:47;;;;;;;2.95;1.20;;;17.70;99.90;;;;;;5055790;28;20129;-41
2023/08/03 04:28:13;;;;;;;2.15;1.13;;;17.70;99.90;;;;;;5065119;28;20041;-43
2023/08/03 04:30:38;;;;;;;2.10;1.20;;;17.70;99.90;;;;;;5055966;28;20692;-43
2023/08/03 04:33:04;;;;;;;2.88;1.20;;;17.70;99.90;;;;;;5067638;28;20028;-42
2023/08/03 04:35:29;;;;;;;2.80;1.08;;;17.80;99.90;;;;;;5055904;28;20555;-42
2023/08/03 04:37:55;;;;;;;2.97;1.20;;;17.70;99.90;;;;;;5067287;28;20384;-42
2023/08/03 04:40:20;;;;;;;1.95;1.30;;;17.80;99.90;;;;;;5054511;28;20029;-42
2023/08/03 04:42:46;;;;;;;2.17;1.17;;;17.80;99.90;;;;;;5067116;28;20036;-42
2023/08/03 04:45:11;;;;;;;2.88;1.30;;;17.80;99.90;;;;;;5056063;28;20028;-41
2023/08/03 04:47:38;;;;;;;3.10;1.35;;;17.80;99.90;;;;;;5065116;28;20478;-42
2023/08/03 04:50:04;;;;;;;1.90;1.20;;;17.80;99.90;;;;;;5059454;28;20112;-42
2023/08/03 04:52:29;;;;;;;3.00;1.27;;;17.70;99.90;;;;;;5061665;28;20621;-42
2023/08/03 04:54:55;;;;;;;1.92;1.02;;;17.70;99.90;;;;;;5061969;28;20139;-42
2023/08/03 04:57:21;;;;;;;2.42;1.17;;;17.70;99.90;;;;;;5059085;28;20016;-42
2023/08/03 04:59:46;;;;;;;2.38;1.10;;;17.70;99.90;;;;;;5063948;28;20024;-42
2023/08/03 05:02:12;;;;;;;5.55;1.30;;;17.70;99.90;;;;;;5056853;28;20040;-42
2023/08/03 05:04:37;;;;;;;3.50;1.40;;;17.70;99.90;;;;;;5064143;28;20021;-42
2023/08/03 05:07:03;;;;;;;1.27;0.98;;;17.70;99.90;;;;;;5055418;28;20016;-41
2023/08/03 05:09:29;;;;;;;2.20;1.05;;;17.70;99.90;;;;;;5065814;28;20051;-42
2023/08/03 05:11:54;;;;;;;3.25;0.90;;;17.60;99.90;;;;;;5053861;28;20024;-42
2023/08/03 05:14:20;;;;;;;1.83;0.90;;;17.60;99.90;;;;;;5066848;28;20472;-42
2023/08/03 05:16:45;;;;;;;2.38;1.13;;;17.70;99.90;;;;;;5054395;28;20020;-42
2023/08/03 05:19:11;;;;;;;1.33;0.85;;;17.70;99.90;;;;;;5065549;28;20024;-42
2023/08/03 05:21:36;;;;;;;2.38;1.10;;;17.70;99.90;;;;;;5054223;28;20032;-42
2023/08/03 05:24:02;;;;;;;2.90;1.00;;;17.70;99.90;;;;;;5066310;28;20020;-42
2023/08/03 05:26:32;;;;;;;3.28;1.10;;;17.70;99.90;;;;;;5056065;28;20509;-42
2023/08/03 05:28:58;;;;;;;1.73;0.80;;;17.70;99.90;;;;;;5063961;28;20829;-42
2023/08/03 05:31:24;;;;;;;4.00;1.00;;;17.80;99.90;;;;;;5059147;28;20033;-42
2023/08/03 05:33:55;;;;;;;2.10;0.80;;;17.80;99.90;;;;;;5060257;28;20143;-42
2023/08/03 05:36:25;;;;;;;1.35;0.63;;;17.80;99.90;;;;;;5060388;28;20033;-42
2023/08/03 05:38:56;;;;;;;3.40;1.00;;;17.80;99.90;;;;;;5059589;28;20027;-43
2023/08/03 05:41:25;;;;;;;2.05;0.85;;;17.80;99.90;;;;;;5060048;28;20082;-42
2023/08/03 05:43:51;;;;;;;1.70;0.85;;;17.70;99.90;;;;;;5056956;28;20723;-43
2023/08/03 05:46:17;;;;;;;2.10;0.65;;;17.70;99.90;;;;;;5062663;28;20097;-43
2023/08/03 05:48:52;;;;;;;1.98;0.88;;;17.70;99.90;;;;;;5054013;28;20420;-42
2023/08/03 05:51:25;;;;;;;2.72;0.82;;;17.70;99.90;;;;;;5063723;28;20040;-42
2023/08/03 05:53:52;;;;;;;2.53;0.95;;;17.70;99.90;;;;;;5054143;28;20048;-42
2023/08/03 05:56:20;;;;;;;2.45;0.75;;;17.70;99.90;;;;;;5063960;28;20021;-42
2023/08/03 05:58:45;;;;;;;1.92;0.80;;;17.70;99.90;;;;;;5053866;28;20099;-42
2023/08/03 06:01:12;;;;;;;5.13;1.10;;;17.70;99.90;;;;;;5064222;28;20170;-42
2023/08/03 06:03:43;;;;;;;3.70;0.88;;;17.80;99.90;;;;;;5053152;28;20043;-42
2023/08/03 06:06:15;;;;;;;1.40;0.90;;;17.80;99.90;;;;;;5065341;28;20070;-42
2023/08/03 06:09:02;;;;;;;4.13;1.13;;;17.80;99.90;;;;;;5051193;28;20508;-42
2023/08/03 06:11:28;;;;;;;1.90;1.10;;;17.70;99.90;;;;;;5064282;28;20036;-42
2023/08/03 06:13:55;;;;;;;2.22;1.20;;;17.70;99.90;;;;;;5052356;28;20048;-42
2023/08/03 06:16:23;;;;;;;2.97;1.20;;;17.80;99.90;;;;;;5053753;28;20029;-42
2023/08/03 06:18:52;;;;;;;2.45;1.00;;;17.80;99.90;;;;;;5057660;28;20035;-41
2023/08/03 06:21:18;;;;;;;3.30;1.20;;;17.80;99.90;;;;;;5063807;28;20060;-42
2023/08/03 06:23:46;;;;;;;3.08;1.20;;;17.80;99.90;;;;;;5051984;28;20078;-42
2023/08/03 06:26:13;;;;;;;3.38;1.08;;;17.80;99.90;;;;;;5065159;28;20414;-42
2023/08/03 06:28:39;;;;;;;3.60;1.45;;;17.70;99.90;;;;;;5054993;28;20032;-41
2023/08/03 06:31:16;;;;;;;2.38;1.15;;;17.70;99.90;;;;;;5062759;28;20025;-42
2023/08/03 06:33:44;;;;;;;4.35;1.35;;;17.70;99.90;;;;;;5055560;28;20037;-42
2023/08/03 06:36:18;;;;;;;3.25;1.20;;;17.60;99.90;;;;;;5061153;28;20547;-42
2023/08/03 06:38:47;;;;;;;4.25;1.10;;;17.70;99.90;;;;;;5057061;28;20071;-42
2023/08/03 06:41:13;;;;;;;2.85;0.93;;;17.70;99.90;;;;;;5060867;28;20098;-41
2023/08/03 06:43:39;;;;;;;3.00;1.13;;;17.70;99.90;;;;;;5061297;28;20012;-41
2023/08/03 06:46:05;;;;;;;2.53;1.10;;;17.70;99.90;;;;;;5052559;28;20106;-42
2023/08/03 06:48:32;;;;;;;2.85;1.00;;;17.70;99.90;;;;;;5048084;28;20025;-42
2023/08/03 06:50:59;;;;;;;3.80;1.33;;;17.70;99.90;;;;;;5053387;28;20032;-42
2023/08/03 06:53:25;;;;;;;4.40;1.00;;;17.70;99.90;;;;;;5046684;28;20461;-42
2023/08/03 06:55:50;;;;;;;4.97;1.42;;;17.80;99.90;;;;;;5055754;28;20032;-42
2023/08/03 06:58:17;;;;;;;2.33;1.00;;;17.80;99.90;;;;;;5045520;28;20025;-42
2023/08/03 07:00:44;;;;;;;2.70;1.30;;;17.80;99.90;;;;;;5055111;28;20090;-42
2023/08/03 07:03:10;;;;;;;4.50;1.00;;;17.80;99.90;;;;;;5045265;28;20112;-42
2023/08/03 07:05:43;;;;;;;3.38;0.95;;;17.90;99.90;;;;;;5056223;28;20013;-42
2023/08/03 07:08:09;;;;;;;2.78;1.10;;;17.90;99.90;;;;;;5044749;28;20045;-42
2023/08/03 07:10:35;;;;;;;3.15;1.00;;;17.90;99.90;;;;;;5057371;28;20534;-42
2023/08/03 07:13:01;;;;;;;2.50;1.27;;;18.00;99.90;;;;;;5044207;28;20068;-42
2023/08/03 07:15:27;;;;;;;4.20;1.20;;;18.00;99.90;;;;;;5054410;28;20495;-42
2023/08/03 07:17:52;;;;;;;3.70;1.00;;;18.00;99.90;;;;;;5045375;28;20025;-42
2023/08/03 07:20:19;;;;;;;2.88;1.02;;;18.00;99.90;;;;;;5053439;28;20024;-41
2023/08/03 07:22:48;;;;;;;2.28;0.80;;;18.00;99.90;;;;;;5047430;28;20108;-42
2023/08/03 07:25:14;;;;;;;2.92;1.05;;;17.90;99.90;;;;;;5051561;28;20813;-42
2023/08/03 07:27:41;;;;;;;1.98;0.95;;;17.90;99.90;;;;;;5049495;28;20043;-42
2023/08/03 07:30:07;;;;;;;2.80;1.23;;;17.90;99.90;;;;;;5049612;28;20472;-41
2023/08/03 07:32:34;;;;;;;3.45;1.10;;;17.80;99.90;;;;;;5051360;28;20037;-42
2023/08/03 07:35:00;;;;;;;1.65;0.90;;;17.80;99.90;;;;;;5047561;28;20495;-42
2023/08/03 07:37:26;;;;;;;2.92;0.93;;;17.80;99.90;;;;;;5054633;28;20024;-42
2023/08/03 07:39:52;;;;;;;2.15;0.88;;;17.80;99.90;;;;;;5045124;28;20314;-42
2023/08/03 07:42:17;;;;;;;2.13;1.00;;;17.80;99.90;;;;;;5055083;28;20035;-42
2023/08/03 07:44:43;;;;;;;2.33;0.90;;;17.90;99.90;;;;;;5045184;28;20570;-41
2023/08/03 07:47:08;;;;;;;2.95;0.90;;;17.90;99.90;;;;;;5053470;28;20100;-41
2023/08/03 07:49:34;;;;;;;2.50;1.05;;;17.90;99.90;;;;;;5045513;28;20061;-42
2023/08/03 07:52:00;;;;;;;2.70;1.10;;;17.90;99.90;;;;;;5060484;28;20383;-41
2023/08/03 07:54:25;;;;;;;3.00;1.02;;;17.90;99.90;;;;;;5048183;28;20064;-42
2023/08/03 07:56:51;;;;;;;3.45;1.20;;;17.90;99.90;;;;;;5060349;28;20464;-42
2023/08/03 07:59:16;;;;;;;3.17;1.10;;;17.90;99.90;;;;;;5047518;28;20472;-42
2023/08/03 08:01:43;;;;;;;2.03;0.90;;;17.80;99.90;;;;;;5056818;28;20033;-42
2023/08/03 08:04:09;;;;;;;2.90;0.90;;;17.80;99.90;;;;;;5049702;28;20557;-42
2023/08/03 08:06:42;;;;;;;1.50;0.90;;;17.80;99.90;;;;;;5055616;28;20020;-42
2023/08/03 08:09:08;;;;;;;3.28;1.17;;;17.90;99.90;;;;;;5051353;28;20045;-42
2023/08/03 08:11:33;;;;;;;2.90;0.80;;;17.90;99.90;;;;;;5053621;28;20030;-42
2023/08/03 08:13:59;;;;;;;2.60;1.00;;;17.90;99.90;;;;;;5055009;28;20025;-42
2023/08/03 08:16:25;;;;;;;4.15;1.40;;;18.00;99.90;;;;;;5052336;28;20024;-43
2023/08/03 08:18:51;;;;;;;2.03;1.08;;;18.00;99.90;;;;;;5057718;28;20047;-42
2023/08/03 08:21:16;;;;;;;3.28;1.00;;;18.00;99.90;;;;;;5066398;28;20016;-42
2023/08/03 08:23:42;;;;;;;2.40;1.05;;;18.00;99.90;;;;;;5055810;28;20037;-42
2023/08/03 08:26:15;;;;;;;2.30;0.88;;;18.10;99.90;;;;;;5066526;28;20032;-43
2023/08/03 08:28:42;;;;;;;2.28;0.88;;;18.10;99.90;;;;;;5056076;28;20032;-42
2023/08/03 08:31:08;;;;;;;2.30;1.02;;;18.10;99.90;;;;;;5067088;28;20035;-43
2023/08/03 08:33:34;;;;;;;2.20;1.02;;;18.10;99.90;;;;;;5055385;28;20024;-42
2023/08/03 08:36:00;;;;;;;3.10;0.98;;;18.00;99.90;;;;;;5067207;28;20032;-43
2023/08/03 08:38:30;;;;;;;5.07;1.40;;;18.10;99.90;;;;;;5054829;28;20145;-42
2023/08/03 08:40:56;;;;;;;1.88;1.02;;;18.10;99.90;;;;;;5067770;28;20013;-43
2023/08/03 08:43:25;;;;;;;3.05;1.40;;;18.20;99.90;;;;;;5055082;28;20037;-42
2023/08/03 08:45:51;;;;;;;2.00;1.17;;;18.30;99.90;;;;;;5047437;28;20036;-43
2023/08/03 08:48:16;;;;;;;3.10;1.27;;;18.30;99.90;;;;;;5056922;28;20033;-43
2023/08/03 08:50:43;;;;;;;2.67;1.40;;;18.40;99.90;;;;;;5049106;28;20036;-42
2023/08/03 08:53:09;;;;;;;1.95;1.00;;;18.50;99.90;;;;;;5054504;28;20093;-42
2023/08/03 08:55:34;;;;;;;2.83;1.25;;;18.70;99.90;;;;;;5051986;28;20021;-42
2023/08/03 08:58:03;;;;;;;2.67;1.27;;;18.70;99.90;;;;;;5051518;28;20028;-42
2023/08/03 09:00:28;;;;;;;1.38;1.05;;;18.90;99.90;;;;;;5054382;28;20025;-43
2023/08/03 09:02:56;;;;;;;2.63;1.17;;;18.90;99.90;;;;;;5049049;28;20099;-42
2023/08/03 09:05:24;;;;;;;2.85;1.27;;;19.10;99.90;;;;;;5056598;28;20028;-42
2023/08/03 09:08:01;;;;;;;1.70;1.15;;;19.30;99.90;;;;;;5048560;28;20453;-41
2023/08/03 09:10:26;;;;;;;2.42;1.10;;;19.40;99.90;;;;;;5056817;28;20883;-43
2023/08/03 09:12:52;;;;;;;1.50;0.80;;;19.50;99.90;;;;;;5064851;28;20033;-42
2023/08/03 09:15:18;;;;;;;2.20;1.10;;;19.50;99.90;;;;;;5055221;28;20501;-42
2023/08/03 09:18:04;;;;;;;1.40;1.00;;;19.50;99.90;;;;;;5046929;28;20053;-42
2023/08/03 09:20:31;;;;;;;4.63;1.83;;;19.50;99.90;;;;;;5058298;28;20136;-42
2023/08/03 09:22:57;;;;;;;4.35;2.00;;;19.60;99.90;;;;;;5047825;28;20396;-42
2023/08/03 09:25:23;;;;;;;3.22;1.90;;;19.70;99.90;;;;;;5057437;28;20111;-42
2023/08/03 09:27:54;;;;;;;4.30;2.33;;;19.70;99.90;;;;;;5046782;28;20377;-42
2023/08/03 09:49:05;;;;;;;4.50;2.17;;;19.70;99.90;;;;;;5096314;27;20179;-34
2023/08/03 09:51:43;;;;;;;5.15;1.95;;;20.90;99.90;;;;;;5084120;28;20423;-35
2023/08/03 09:54:24;;;;;;;6.35;1.90;;;20.90;99.90;;;;;;5093759;28;20035;-34
2023/08/03 09:56:53;;;;;;;2.63;1.42;;;20.90;99.90;;;;;;5083887;28;20046;-35
2023/08/03 09:59:24;;;;;;;3.45;1.73;;;20.90;99.90;;;;;;5095536;28;20020;-35
2023/08/03 10:01:56;;;;;;;4.90;1.98;;;21.00;99.90;;;;;;5082910;28;20515;-35
2023/08/03 10:04:24;;;;;;;5.07;2.10;;;21.00;99.90;;;;;;5092775;28;20016;-34
2023/08/03 10:06:56;;;;;;;2.85;1.83;;;20.90;99.90;;;;;;5084565;28;20036;-35
2023/08/03 10:09:26;;;;;;;5.25;2.03;;;20.70;99.90;;;;;;5090899;28;20024;-35
2023/08/03 10:12:24;;;;;;;2.22;1.45;;;20.50;99.90;;;;;;5085738;28;20077;-36
2023/08/03 10:14:52;;;;;;;2.55;1.55;;;20.30;99.90;;;;;;5087830;28;20039;-35
2023/08/03 10:17:18;;;;;;;3.63;1.73;;;20.20;99.90;;;;;;5082784;28;20070;-35
2023/08/03 10:19:47;;;;;;;2.95;1.80;;;20.10;99.90;;;;;;5091271;28;20106;-35
2023/08/03 10:22:13;;;;;;;3.63;1.95;;;20.10;99.90;;;;;;5083926;28;20083;-35
2023/08/03 10:25:16;;;;;;;2.30;1.45;;;20.10;99.90;;;;;;5088977;28;20047;-35
2023/08/03 10:27:41;;;;;;;1.95;1.42;;;20.10;99.90;;;;;;5082546;28;20043;-35
2023/08/03 10:30:10;;;;;;;3.22;1.30;;;20.20;99.90;;;;;;5090831;28;20019;-36
2023/08/03 10:32:35;;;;;;;3.08;1.30;;;20.40;99.90;;;;;;5084510;28;20223;-35
2023/08/03 10:35:37;;;;;;;3.25;1.83;;;20.60;99.90;;;;;;5088591;28;20530;-35
2023/08/03 10:38:03;;;;;;;3.08;1.05;;;20.70;99.90;;;;;;5088556;28;20020;-35
2023/08/03 10:40:28;;;;;;;3.60;1.17;;;20.30;99.90;;;;;;5091939;28;20668;-34
2023/08/03 10:43:09;;;;;;;2.20;0.88;;;19.60;99.90;;;;;;5097954;28;20050;-35
2023/08/03 10:45:36;;;;;;;1.30;0.90;;;19.00;99.90;;;;;;5092312;28;20028;-34
2023/08/03 10:48:27;;;;;;;3.45;0.90;;;18.80;99.90;;;;;;5095637;28;20139;-34
2023/08/03 10:51:01;;;;;;;1.95;1.00;;;18.60;99.90;;;;;;5077431;28;20028;-34
2023/08/03 10:53:27;;;;;;;1.35;0.98;;;18.50;99.90;;;;;;5086885;28;20056;-34
2023/08/03 10:56:07;;;;;;;2.92;1.08;;;18.40;99.90;;;;;;5079315;28;20025;-34
2023/08/03 10:58:50;;;;;;;2.97;1.00;;;18.40;99.90;;;;;;5085826;28;20016;-34
2023/08/03 11:01:23;;;;;;;2.95;0.93;;;18.40;99.90;;;;;;5077641;28;20054;-35
2023/08/03 11:03:50;;;;;;;1.88;1.10;;;18.50;99.90;;;;;;5086900;28;20481;-34
2023/08/03 11:06:17;;;;;;;2.47;1.20;;;18.50;99.90;;;;;;5078435;28;20012;-35
2023/08/03 11:08:44;;;;;;;2.20;1.40;;;18.60;99.90;;;;;;5084479;28;20035;-34
2023/08/03 11:11:14;;;;;;;2.72;1.20;;;18.60;99.90;;;;;;5079847;28;20021;-34
2023/08/03 11:13:44;;;;;;;1.50;0.80;;;18.70;99.90;;;;;;5082355;28;20032;-34
2023/08/03 11:16:13;;;;;;;1.23;1.10;;;18.80;99.90;;;;;;5081608;28;20544;-34
2023/08/03 11:18:47;;;;;;;2.28;1.23;;;18.80;99.90;;;;;;5079804;28;20107;-35
2023/08/03 11:21:14;;;;;;;3.35;1.10;;;18.80;99.90;;;;;;5082511;28;20060;-35
2023/08/03 11:23:39;;;;;;;3.88;1.50;;;18.80;99.90;;;;;;5079302;28;20053;-35
2023/08/03 11:26:08;;;;;;;4.38;1.50;;;18.80;99.90;;;;;;5084471;28;20024;-35
2023/08/03 11:28:43;;;;;;;2.28;1.20;;;18.80;99.90;;;;;;5076362;28;20100;-34
2023/08/03 11:31:16;;;;;;;2.80;1.38;;;18.80;99.90;;;;;;5085302;28;20061;-34
2023/08/03 11:33:52;;;;;;;2.17;1.52;;;18.90;99.90;;;;;;5076122;28;20027;-35
2023/08/03 11:36:19;;;;;;;1.92;1.20;;;18.90;99.90;;;;;;5085840;28;20032;-35
2023/08/03 11:38:49;;;;;;;4.55;1.33;;;18.90;99.90;;;;;;5078545;28;20016;-35
2023/08/03 11:41:19;;;;;;;2.55;1.40;;;18.90;99.90;;;;;;5085723;28;20460;-35
2023/08/03 11:43:55;;;;;;;2.08;1.15;;;18.90;99.90;;;;;;5075268;28;20020;-36
2023/08/03 11:46:26;;;;;;;2.88;1.42;;;19.00;99.90;;;;;;5084412;28;20093;-35
2023/08/03 11:48:56;;;;;;;2.92;1.40;;;19.00;99.90;;;;;;5075042;28;20055;-35
2023/08/03 11:51:33;;;;;;;3.55;1.60;;;19.00;99.90;;;;;;5085615;28;20024;-35
2023/08/03 11:54:09;;;;;;;2.92;1.50;;;19.00;99.90;;;;;;5077008;28;20357;-36
2023/08/03 11:56:38;;;;;;;4.40;1.60;;;19.00;99.90;;;;;;5067326;28;20033;-35
2023/08/03 11:59:10;;;;;;;3.75;1.60;;;19.00;99.90;;;;;;5077260;28;20023;-36
2023/08/03 12:01:51;;;;;;;4.10;1.73;;;18.90;99.90;;;;;;5064668;28;20025;-35
2023/08/03 12:04:17;;;;;;;2.70;1.30;;;18.80;99.90;;;;;;5076423;28;20029;-36
2023/08/03 12:06:44;;;;;;;2.97;2.08;;;18.90;99.90;;;;;;5065132;28;20028;-35
2023/08/03 12:09:25;;;;;;;3.20;1.40;;;19.00;99.90;;;;;;5078063;28;20862;-36
2023/08/03 12:12:29;;;;;;;2.47;1.25;;;19.10;99.90;;;;;;5066576;28;20028;-35
2023/08/03 12:14:55;;;;;;;3.13;1.50;;;19.10;99.90;;;;;;5063074;28;20039;-35
2023/08/03 12:17:21;;;;;;;2.40;1.40;;;19.00;99.90;;;;;;5084210;28;20020;-35
2023/08/03 12:19:49;;;;;;;2.97;1.58;;;18.90;99.90;;;;;;5074855;28;20036;-35
2023/08/03 12:22:15;;;;;;;4.00;1.63;;;18.90;99.90;;;;;;5084877;28;20031;-35
2023/08/03 12:24:43;;;;;;;4.88;1.67;;;18.90;99.90;;;;;;5081244;28;20024;-35
2023/08/03 12:27:09;;;;;;;3.40;1.33;;;19.00;99.90;;;;;;5085137;28;20463;-35
2023/08/03 12:29:34;;;;;;;4.45;1.67;;;19.10;99.90;;;;;;5072261;28;20043;-34
2023/08/03 12:32:00;;;;;;;3.92;1.20;;;19.20;99.90;;;;;;5065615;28;20013;-35
2023/08/03 12:34:32;;;;;;;1.58;0.95;;;19.30;99.90;;;;;;5076504;28;20043;-35
2023/08/03 12:36:57;;;;;;;1.98;0.90;;;19.30;99.90;;;;;;5066123;28;20024;-35
2023/08/03 12:39:23;;;;;;;1.38;0.60;;;19.20;99.90;;;;;;5072506;28;20445;-36
2023/08/03 12:41:48;;;;;;;1.02;0.73;;;19.10;99.90;;;;;;5081287;28;20024;-34
2023/08/03 12:44:15;;;;;;;1.73;0.70;;;19.00;99.90;;;;;;5078646;28;20027;-34
2023/08/03 12:46:41;;;;;;;1.35;0.70;;;19.00;99.90;;;;;;5079685;28;20032;-34
2023/08/03 12:49:07;;;;;;;2.95;1.10;;;19.00;99.90;;;;;;5080366;28;20708;-34
2023/08/03 12:51:35;;;;;;;4.05;1.00;;;19.20;99.90;;;;;;5074047;28;20116;-34
2023/08/03 12:54:02;;;;;;;1.63;0.95;;;19.20;99.90;;;;;;5066341;28;20135;-35
2023/08/03 12:56:27;;;;;;;3.90;0.80;;;19.30;99.90;;;;;;5075725;28;20081;-34
2023/08/03 12:58:53;;;;;;;2.78;1.10;;;19.40;99.90;;;;;;5066658;28;20424;-34
2023/08/03 13:01:22;;;;;;;2.45;0.90;;;19.50;99.90;;;;;;5076338;28;20017;-34
2023/08/03 13:03:47;;;;;;;3.95;0.90;;;19.60;99.90;;;;;;5065433;28;20032;-35
2023/08/03 13:06:13;;;;;;;1.85;0.80;;;19.70;99.90;;;;;;5073236;28;20012;-34
2023/08/03 13:08:38;;;;;;;1.10;0.70;;;19.90;99.90;;;;;;5085359;28;20024;-35
2023/08/03 13:11:04;;;;;;;1.80;0.77;;;20.00;99.90;;;;;;5071266;28;20036;-35